createdAt,value
2018-06-02T00:00:07.543Z,19.80
2018-06-02T00:02:35.000Z,19.80
2018-06-02T00:05:02.535Z,19.80
2018-06-02T00:07:30.021Z,19.80
2018-06-02T00:09:57.512Z,19.80
2018-06-02T00:12:24.974Z,19.80
2018-06-02T00:14:52.442Z,19.80
2018-06-02T00:17:20.692Z,19.70
2018-06-02T00:19:48.218Z,19.70
2018-06-02T00:22:15.680Z,19.70
2018-06-02T00:24:43.179Z,19.70
2018-06-02T00:27:10.663Z,19.70
2018-06-02T00:29:38.132Z,19.70
2018-06-02T00:32:05.646Z,19.60
2018-06-02T00:34:33.107Z,19.60
2018-06-02T00:37:00.613Z,19.60
2018-06-02T00:39:28.108Z,19.60
2018-06-02T00:41:56.146Z,19.60
2018-06-02T00:44:23.648Z,19.50
2018-06-02T00:46:51.117Z,19.50
2018-06-02T00:49:18.597Z,19.40
2018-06-02T00:51:46.076Z,19.30
2018-06-02T00:54:13.565Z,19.30
2018-06-02T00:56:41.043Z,19.30
2018-06-02T00:59:09.416Z,19.20
2018-06-02T01:01:36.900Z,19.20
2018-06-02T01:04:05.152Z,19.10
2018-06-02T01:06:32.630Z,19.10
2018-06-02T01:09:00.137Z,19.10
2018-06-02T01:11:27.731Z,19.20
2018-06-02T01:13:55.251Z,19.20
2018-06-02T01:16:22.812Z,19.20
2018-06-02T01:18:50.288Z,19.10
2018-06-02T01:21:17.792Z,19.00
2018-06-02T01:23:45.277Z,19.00
2018-06-02T01:26:12.801Z,18.90
2018-06-02T01:28:40.303Z,18.90
2018-06-02T01:31:07.805Z,18.80
2018-06-02T01:33:35.288Z,18.90
2018-06-02T01:36:02.783Z,19.00
2018-06-02T01:38:30.477Z,19.10
2018-06-02T01:40:58.848Z,19.00
2018-06-02T01:43:26.444Z,18.90
2018-06-02T01:45:53.948Z,18.90
2018-06-02T01:48:21.430Z,18.90
2018-06-02T01:50:49.713Z,18.90
2018-06-02T01:53:17.223Z,18.90
2018-06-02T01:55:44.730Z,18.80
2018-06-02T01:58:12.267Z,18.80
2018-06-02T02:00:39.768Z,18.80
2018-06-02T02:03:07.293Z,18.80
2018-06-02T02:05:34.817Z,18.80
2018-06-02T02:08:02.319Z,18.80
2018-06-02T02:10:29.780Z,18.80
2018-06-02T02:12:57.337Z,18.80
2018-06-02T02:15:25.564Z,18.80
2018-06-02T02:17:53.040Z,18.80
2018-06-02T02:20:20.519Z,18.80
2018-06-02T02:22:48.006Z,18.90
2018-06-02T02:25:15.519Z,19.00
2018-06-02T02:27:43.031Z,19.10
2018-06-02T02:30:10.509Z,19.20
2018-06-02T02:32:38.210Z,19.20
2018-06-02T02:35:05.776Z,19.20
2018-06-02T02:37:33.292Z,19.20
2018-06-02T02:40:00.757Z,19.30
2018-06-02T02:42:28.244Z,19.30
2018-06-02T02:44:55.912Z,19.30
2018-06-02T02:47:23.488Z,19.40
2018-06-02T02:49:50.962Z,19.30
2018-06-02T02:52:18.508Z,19.40
2018-06-02T02:54:46.107Z,19.40
2018-06-02T02:57:13.666Z,19.50
2018-06-02T02:59:41.167Z,19.60
2018-06-02T03:02:08.632Z,19.60
2018-06-02T03:04:36.159Z,19.70
2018-06-02T03:07:03.695Z,19.60
2018-06-02T03:09:31.200Z,19.60
2018-06-02T03:11:58.700Z,19.60
2018-06-02T03:14:26.249Z,19.60
2018-06-02T03:16:53.889Z,19.60
2018-06-02T03:19:21.411Z,19.70
2018-06-02T03:21:48.936Z,19.70
2018-06-02T03:24:16.390Z,19.80
2018-06-02T03:26:44.012Z,19.80
2018-06-02T03:29:12.256Z,20.10
2018-06-02T03:31:39.743Z,20.00
2018-06-02T03:34:07.208Z,20.10
2018-06-02T03:36:34.725Z,20.10
2018-06-02T03:39:02.563Z,20.10
2018-06-02T03:41:30.033Z,20.10
2018-06-02T03:43:58.592Z,20.10
2018-06-02T03:46:26.181Z,20.10
2018-06-02T03:48:53.698Z,20.10
2018-06-02T03:51:21.152Z,20.10
2018-06-02T03:53:48.662Z,20.20
2018-06-02T03:56:16.202Z,20.30
2018-06-02T03:58:43.684Z,20.30
2018-06-02T04:01:11.176Z,20.40
2018-06-02T04:03:38.724Z,20.40
2018-06-02T04:06:07.009Z,20.50
2018-06-02T04:08:34.515Z,20.50
2018-06-02T04:11:02.056Z,20.40
2018-06-02T04:13:29.523Z,20.40
2018-06-02T04:15:57.096Z,20.50
2018-06-02T04:18:24.584Z,20.50
2018-06-02T04:20:52.138Z,20.60
2018-06-02T04:23:19.616Z,20.40
2018-06-02T04:25:47.116Z,20.40
2018-06-02T04:28:14.621Z,20.30
2018-06-02T04:30:42.137Z,20.30
2018-06-02T04:33:09.630Z,20.30
2018-06-02T04:35:37.891Z,20.40
2018-06-02T04:38:05.397Z,20.40
2018-06-02T04:40:32.896Z,20.40
2018-06-02T04:43:00.500Z,20.50
2018-06-02T04:45:28.167Z,20.50
2018-06-02T04:47:55.780Z,20.50
2018-06-02T04:50:23.302Z,20.50
2018-06-02T04:52:50.800Z,20.50
2018-06-02T04:55:18.330Z,20.50
2018-06-02T04:57:45.817Z,20.60
2018-06-02T05:00:13.354Z,20.70
2018-06-02T05:02:41.004Z,20.90
2018-06-02T05:05:08.520Z,20.90
2018-06-02T05:07:36.811Z,21.00
2018-06-02T05:10:04.430Z,21.00
2018-06-02T05:12:31.932Z,21.00
2018-06-02T05:14:59.472Z,21.00
2018-06-02T05:17:27.777Z,21.00
2018-06-02T05:19:55.332Z,20.90
2018-06-02T05:22:22.843Z,20.90
2018-06-02T05:24:50.351Z,20.90
2018-06-02T05:27:17.964Z,20.90
2018-06-02T05:29:45.458Z,20.90
2018-06-02T05:32:13.108Z,20.90
2018-06-02T05:34:40.678Z,20.90
2018-06-02T05:37:09.022Z,20.90
2018-06-02T05:39:36.538Z,20.80
2018-06-02T05:42:04.070Z,20.80
2018-06-02T05:44:31.729Z,20.70
2018-06-02T05:46:59.999Z,20.70
2018-06-02T05:49:27.569Z,20.70
2018-06-02T05:51:55.302Z,20.70
2018-06-02T05:54:22.838Z,20.70
2018-06-02T05:56:50.342Z,20.70
2018-06-02T05:59:18.164Z,20.70
2018-06-02T06:01:45.754Z,20.70
2018-06-02T06:04:13.273Z,20.50
2018-06-02T06:06:40.752Z,20.50
2018-06-02T06:09:08.324Z,20.40
2018-06-02T06:11:35.876Z,20.30
2018-06-02T06:14:03.370Z,20.30
2018-06-02T06:16:31.031Z,20.30
2018-06-02T06:18:58.612Z,20.30
2018-06-02T06:21:26.214Z,20.30
2018-06-02T06:23:53.790Z,20.30
2018-06-02T06:26:21.290Z,20.30
2018-06-02T06:28:50.091Z,20.30
2018-06-02T06:31:17.673Z,20.30
2018-06-02T06:33:46.897Z,20.30
2018-06-02T06:36:14.474Z,20.10
2018-06-02T06:38:44.266Z,20.10
2018-06-02T06:41:12.037Z,20.10
2018-06-02T06:43:48.447Z,20.00
2018-06-02T06:46:16.716Z,19.80
2018-06-02T06:49:04.881Z,19.50
2018-06-02T06:51:33.170Z,19.20
2018-06-02T06:54:01.468Z,19.20
2018-06-02T06:56:29.746Z,18.90
2018-06-02T06:58:57.237Z,18.90
2018-06-02T07:01:24.733Z,18.70
2018-06-02T07:03:52.228Z,18.70
2018-06-02T07:06:19.746Z,18.60
2018-06-02T07:08:47.272Z,18.60
2018-06-02T07:11:14.872Z,18.70
2018-06-02T07:13:42.636Z,18.60
2018-06-02T07:16:10.175Z,18.70
2018-06-02T07:18:37.681Z,18.60
2018-06-02T07:21:05.952Z,18.60
2018-06-02T07:23:34.240Z,18.50
2018-06-02T07:26:02.692Z,18.60
2018-06-02T07:28:30.192Z,18.50
2018-06-02T07:30:57.736Z,18.60
2018-06-02T07:33:25.233Z,18.60
2018-06-02T07:35:52.712Z,18.60
2018-06-02T07:38:20.261Z,18.70
2018-06-02T07:40:47.821Z,18.70
2018-06-02T07:43:15.392Z,18.70
2018-06-02T07:45:42.923Z,18.70
2018-06-02T07:48:10.449Z,18.60
2018-06-02T07:50:37.952Z,18.60
2018-06-02T07:53:05.488Z,18.60
2018-06-02T07:55:33.034Z,18.70
2018-06-02T07:58:00.515Z,18.70
2018-06-02T08:00:28.002Z,18.80
2018-06-02T08:02:55.513Z,18.70
2018-06-02T08:05:23.921Z,18.80
2018-06-02T08:07:51.412Z,18.80
2018-06-02T08:10:19.669Z,18.90
2018-06-02T08:12:47.226Z,18.90
2018-06-02T08:15:14.786Z,19.00
2018-06-02T08:17:42.335Z,19.10
2018-06-02T08:20:10.126Z,19.00
2018-06-02T08:22:37.738Z,19.00
2018-06-02T08:25:05.373Z,19.00
2018-06-02T08:27:32.864Z,19.00
2018-06-02T08:30:00.487Z,19.10
2018-06-02T08:32:27.997Z,19.20
2018-06-02T08:34:55.553Z,19.20
2018-06-02T08:37:23.071Z,19.20
2018-06-02T08:39:50.661Z,19.30
2018-06-02T08:42:18.176Z,19.30
2018-06-02T08:44:45.755Z,19.40
2018-06-02T08:47:13.356Z,19.30
2018-06-02T08:49:40.905Z,19.40
2018-06-02T08:52:08.450Z,19.40
2018-06-02T08:54:36.036Z,19.50
2018-06-02T08:57:03.569Z,19.50
2018-06-02T08:59:31.150Z,19.60
2018-06-02T09:01:58.681Z,19.60
2018-06-02T09:04:26.791Z,19.60
2018-06-02T09:06:54.409Z,19.60
2018-06-02T09:09:25.224Z,19.70
2018-06-02T09:11:52.874Z,19.70
2018-06-02T09:14:20.463Z,19.70
2018-06-02T09:16:50.195Z,19.60
2018-06-02T09:19:19.000Z,19.60
2018-06-02T09:21:48.198Z,19.60
2018-06-02T09:24:17.768Z,19.70
2018-06-02T09:26:47.706Z,19.70
2018-06-02T09:29:15.890Z,19.80
2018-06-02T09:31:44.391Z,19.80
2018-06-02T09:34:11.918Z,19.80
2018-06-02T09:36:39.408Z,19.90
2018-06-02T09:39:06.902Z,19.90
2018-06-02T09:41:34.425Z,19.90
2018-06-02T09:44:02.084Z,19.80
2018-06-02T09:46:29.588Z,19.90
2018-06-02T09:48:57.264Z,19.80
2018-06-02T09:51:24.865Z,19.80
2018-06-02T09:53:52.379Z,19.80
2018-06-02T09:56:20.936Z,19.80
2018-06-02T09:58:48.555Z,19.80
2018-06-02T10:01:16.812Z,19.80
2018-06-02T10:03:45.018Z,19.70
2018-06-02T10:06:12.942Z,19.80
2018-06-02T10:08:40.459Z,19.80
2018-06-02T10:11:08.149Z,19.80
2018-06-02T10:13:35.738Z,19.80
2018-06-02T10:16:05.009Z,19.90
2018-06-02T10:18:33.590Z,19.90
2018-06-02T10:21:02.314Z,19.90
2018-06-02T10:23:29.976Z,20.00
2018-06-02T10:25:57.543Z,20.00
2018-06-02T10:28:25.226Z,20.00
2018-06-02T10:30:53.795Z,20.00
2018-06-02T10:33:22.607Z,20.00
2018-06-02T10:35:50.237Z,20.10
2018-06-02T10:38:18.034Z,20.10
2018-06-02T10:40:48.576Z,20.20
2018-06-02T10:43:16.169Z,20.20
2018-06-02T10:45:44.368Z,20.20
2018-06-02T10:48:11.945Z,20.20
2018-06-02T10:50:39.608Z,20.10
2018-06-02T10:53:07.336Z,20.10
2018-06-02T10:55:36.411Z,20.10
2018-06-02T10:58:03.908Z,20.00
2018-06-02T11:00:31.397Z,20.00
2018-06-02T11:02:59.059Z,20.10
2018-06-02T11:05:26.569Z,20.10
2018-06-02T11:07:55.071Z,20.30
2018-06-02T11:10:22.657Z,20.50
2018-06-02T11:12:50.366Z,20.70
2018-06-02T11:15:18.024Z,20.80
2018-06-02T11:17:45.684Z,20.90
2018-06-02T11:20:15.162Z,21.00
2018-06-02T11:22:47.873Z,21.10
2018-06-02T11:25:20.507Z,21.10
2018-06-02T11:27:48.219Z,21.00
2018-06-02T11:30:16.631Z,21.10
2018-06-02T11:35:26.681Z,21.20
2018-06-02T11:37:55.281Z,21.30
2018-06-02T11:43:20.499Z,21.30
2018-06-02T11:45:59.455Z,21.20
2018-06-02T11:48:39.987Z,21.20
2018-06-02T11:51:07.587Z,21.10
2018-06-02T11:53:35.201Z,21.10
2018-06-02T11:56:11.924Z,21.10
2018-06-02T11:58:39.718Z,21.10
2018-06-02T12:01:08.489Z,21.10
2018-06-02T12:03:37.221Z,21.10
2018-06-02T12:06:08.703Z,21.20
2018-06-02T12:08:36.541Z,21.20
2018-06-02T12:11:04.135Z,21.20
2018-06-02T12:13:31.612Z,21.20
2018-06-02T12:15:59.194Z,21.20
2018-06-02T12:18:26.854Z,21.20
2018-06-02T12:20:54.342Z,21.20
2018-06-02T12:23:21.876Z,21.20
2018-06-02T12:25:49.402Z,21.30
2018-06-02T12:28:16.957Z,21.30
2018-06-02T12:30:44.454Z,21.20
2018-06-02T12:33:12.753Z,21.10
2018-06-02T12:35:41.095Z,21.10
2018-06-02T12:38:08.599Z,21.10
2018-06-02T12:40:36.148Z,21.20
2018-06-02T12:43:03.687Z,21.30
2018-06-02T12:45:31.275Z,21.20
2018-06-02T12:47:58.779Z,21.20
2018-06-02T12:50:26.303Z,21.10
2018-06-02T12:52:53.877Z,21.00
2018-06-02T12:55:21.402Z,21.00
2018-06-02T12:57:48.944Z,21.00
2018-06-02T13:00:24.135Z,21.00
2018-06-02T13:02:51.642Z,20.90
2018-06-02T13:05:19.323Z,21.00
2018-06-02T13:07:46.879Z,21.10
2018-06-02T13:10:15.814Z,20.90
2018-06-02T13:12:43.308Z,20.90
2018-06-02T13:15:10.864Z,20.70
2018-06-02T13:17:38.448Z,20.70
2018-06-02T13:20:06.721Z,20.70
2018-06-02T13:22:35.061Z,20.60
2018-06-02T13:25:02.552Z,20.60
2018-06-02T13:27:30.095Z,20.50
2018-06-02T13:29:57.584Z,20.50
2018-06-02T13:32:27.039Z,20.60
2018-06-02T13:34:57.161Z,20.60
2018-06-02T13:37:27.454Z,20.70
2018-06-02T13:39:55.691Z,20.70
2018-06-02T13:42:23.426Z,20.80
2018-06-02T13:44:55.198Z,20.80
2018-06-02T13:47:22.904Z,20.80
2018-06-02T13:49:51.545Z,20.90
2018-06-02T13:52:19.338Z,20.90
2018-06-02T13:54:47.056Z,20.80
2018-06-02T13:57:14.637Z,20.80
2018-06-02T13:59:42.106Z,20.80
2018-06-02T14:02:09.675Z,20.80
2018-06-02T14:04:42.291Z,20.70
2018-06-02T14:07:10.419Z,20.80
2018-06-02T14:09:39.377Z,20.90
2018-06-02T14:12:07.048Z,20.80
2018-06-02T14:14:34.971Z,20.80
2018-06-02T14:17:02.860Z,20.90
2018-06-02T14:19:30.516Z,20.90
2018-06-02T14:22:10.533Z,21.00
2018-06-02T14:24:48.793Z,21.10
2018-06-02T14:27:17.190Z,21.00
2018-06-02T14:29:44.664Z,21.10
2018-06-02T14:32:12.211Z,21.00
2018-06-02T14:34:40.660Z,21.10
2018-06-02T14:37:08.154Z,21.10
2018-06-02T14:39:35.635Z,21.20
2018-06-02T14:42:03.169Z,21.20
2018-06-02T14:44:30.661Z,21.30
2018-06-02T14:46:58.217Z,21.30
2018-06-02T14:49:25.799Z,21.30
2018-06-02T14:51:53.373Z,21.30
2018-06-02T14:54:20.907Z,21.20
2018-06-02T14:56:48.502Z,21.10
2018-06-02T14:59:16.156Z,21.10
2018-06-02T15:01:43.740Z,21.10
2018-06-02T15:04:12.029Z,21.10
2018-06-02T15:06:39.592Z,21.10
2018-06-02T15:09:07.845Z,21.30
2018-06-02T15:11:35.346Z,21.30
2018-06-02T15:14:02.833Z,21.40
2018-06-02T15:16:31.138Z,21.30
2018-06-02T15:18:58.637Z,21.30
2018-06-02T15:21:26.128Z,21.40
2018-06-02T15:23:53.784Z,21.30
2018-06-02T15:26:21.374Z,21.50
2018-06-02T15:28:50.009Z,21.50
2018-06-02T15:31:17.652Z,21.60
2018-06-02T15:33:45.199Z,21.60
2018-06-02T15:36:12.949Z,21.60
2018-06-02T15:38:40.526Z,21.50
2018-06-02T15:41:08.200Z,21.60
2018-06-02T15:43:35.862Z,21.60
2018-06-02T15:46:03.975Z,21.60
2018-06-02T15:48:31.527Z,21.70
2018-06-02T15:50:59.338Z,21.60
2018-06-02T15:53:27.589Z,21.60
2018-06-02T15:55:55.149Z,21.60
2018-06-02T15:58:22.706Z,21.60
2018-06-02T16:00:50.212Z,21.60
2018-06-02T16:03:17.704Z,21.70
2018-06-02T16:05:45.249Z,21.60
2018-06-02T16:08:14.797Z,21.60
2018-06-02T16:10:42.279Z,21.40
2018-06-02T16:13:10.575Z,21.30
2018-06-02T16:15:38.064Z,21.30
2018-06-02T16:18:09.667Z,21.10
2018-06-02T16:20:39.208Z,21.10
2018-06-02T16:23:07.928Z,21.10
2018-06-02T16:25:35.571Z,21.10
2018-06-02T16:28:03.141Z,21.10
2018-06-02T16:30:30.674Z,21.00
2018-06-02T16:32:58.983Z,20.90
2018-06-02T16:35:26.665Z,20.80
2018-06-02T16:37:54.966Z,20.90
2018-06-02T16:40:22.472Z,20.90
2018-06-02T16:42:50.093Z,21.00
2018-06-02T16:45:18.604Z,20.90
2018-06-02T16:47:46.092Z,21.00
2018-06-02T16:50:13.620Z,21.00
2018-06-02T16:52:41.118Z,21.00
2018-06-02T16:55:08.622Z,21.00
2018-06-02T16:57:36.146Z,21.00
2018-06-02T17:00:03.924Z,20.90
2018-06-02T17:02:31.609Z,20.90
2018-06-02T17:05:00.071Z,20.90
2018-06-02T17:07:27.706Z,20.90
2018-06-02T17:09:55.317Z,20.80
2018-06-02T17:12:22.823Z,20.80
2018-06-02T17:14:50.389Z,20.70
2018-06-02T17:17:18.024Z,20.60
2018-06-02T17:19:45.755Z,20.60
2018-06-02T17:22:13.347Z,20.50
2018-06-02T17:24:41.093Z,20.50
2018-06-02T17:27:08.762Z,20.50
2018-06-02T17:29:36.377Z,20.50
2018-06-02T17:32:04.002Z,20.30
2018-06-02T17:34:32.323Z,20.00
2018-06-02T17:36:59.841Z,20.00
2018-06-02T17:39:27.332Z,19.90
2018-06-02T17:41:55.402Z,19.70
2018-06-02T17:44:22.982Z,19.60
2018-06-02T17:46:50.540Z,19.60
2018-06-02T17:49:18.062Z,19.50
2018-06-02T17:51:45.582Z,19.40
2018-06-02T17:54:13.181Z,19.40
2018-06-02T17:56:40.825Z,19.30
2018-06-02T17:59:09.262Z,19.30
2018-06-02T18:03:03.869Z,19.30
2018-06-02T18:05:32.525Z,19.40
2018-06-02T18:08:02.083Z,19.40
2018-06-02T18:10:30.835Z,19.40
2018-06-02T18:12:59.318Z,19.40
2018-06-02T18:15:27.868Z,19.40
2018-06-02T18:17:56.546Z,19.40
2018-06-02T18:20:25.163Z,19.40
2018-06-02T18:22:53.718Z,19.40
2018-06-02T18:25:22.145Z,19.40
2018-06-02T18:27:55.190Z,19.30
2018-06-02T18:30:23.886Z,19.30
2018-06-02T18:32:52.435Z,19.30
2018-06-02T18:35:21.131Z,19.30
2018-06-02T18:37:50.160Z,19.30
2018-06-02T18:40:18.770Z,19.30
2018-06-02T18:42:48.320Z,19.30
2018-06-02T18:45:16.706Z,19.20
2018-06-02T18:47:45.422Z,19.20
2018-06-02T18:50:14.459Z,19.30
2018-06-02T18:52:43.778Z,19.30
2018-06-02T18:55:12.607Z,19.30
2018-06-02T18:57:41.399Z,19.30
2018-06-02T19:00:10.090Z,19.30
2018-06-02T19:02:38.637Z,19.30
2018-06-02T19:05:07.279Z,19.30
2018-06-02T19:07:35.806Z,19.30
2018-06-02T19:10:04.319Z,19.20
2018-06-02T19:12:33.017Z,19.20
2018-06-02T19:15:03.181Z,19.30
2018-06-02T19:17:33.098Z,19.20
2018-06-02T19:20:01.638Z,19.20
2018-06-02T19:22:29.994Z,19.20
2018-06-02T19:24:58.821Z,19.30
2018-06-02T19:27:27.407Z,19.30
2018-06-02T19:29:56.157Z,19.30
2018-06-02T19:32:24.802Z,19.30
2018-06-02T19:34:53.226Z,19.30
2018-06-02T19:37:21.648Z,19.30
2018-06-02T19:39:50.498Z,19.30
2018-06-02T19:42:19.328Z,19.30
2018-06-02T19:44:47.993Z,19.20
2018-06-02T19:47:16.460Z,19.20
2018-06-02T19:49:44.795Z,19.30
2018-06-02T19:52:13.762Z,19.40
2018-06-02T19:54:42.190Z,19.40
2018-06-02T19:57:10.645Z,19.30
2018-06-02T19:59:39.321Z,19.30
2018-06-02T20:02:07.799Z,19.30
2018-06-02T20:04:36.692Z,19.30
2018-06-02T20:07:07.617Z,19.30
2018-06-02T20:09:36.195Z,19.30
2018-06-02T20:12:05.016Z,19.30
2018-06-02T20:14:34.833Z,19.30
2018-06-02T20:17:07.941Z,19.40
2018-06-02T20:19:38.438Z,19.40
2018-06-02T20:22:07.349Z,19.50
2018-06-02T20:24:39.187Z,19.40
2018-06-02T20:27:08.256Z,19.50
2018-06-02T20:29:37.800Z,19.40
2018-06-02T20:32:06.822Z,19.40
2018-06-02T20:34:36.749Z,19.40
2018-06-02T20:37:10.975Z,19.50
2018-06-02T20:40:15.231Z,19.50
2018-06-02T20:42:50.955Z,19.50
2018-06-02T20:45:19.439Z,19.50
2018-06-02T20:47:47.691Z,19.50
2018-06-02T20:50:15.874Z,19.50
2018-06-02T20:52:44.137Z,19.40
2018-06-02T20:55:12.361Z,19.40
2018-06-02T20:57:40.598Z,19.40
2018-06-02T21:00:08.790Z,19.40
2018-06-02T21:02:37.090Z,19.20
2018-06-02T21:07:33.229Z,19.10
2018-06-02T21:10:01.536Z,19.10
2018-06-02T21:12:29.722Z,19.00
2018-06-02T21:15:00.898Z,19.00
2018-06-02T21:17:29.197Z,19.00
2018-06-02T21:19:57.356Z,19.00
2018-06-02T21:22:25.567Z,18.90
2018-06-02T21:24:53.848Z,18.90
2018-06-02T21:27:22.049Z,18.80
2018-06-02T21:29:50.294Z,18.80
2018-06-02T21:32:18.530Z,18.70
2018-06-02T21:34:46.744Z,18.80
2018-06-02T21:37:15.047Z,18.70
2018-06-02T21:39:43.353Z,18.80
2018-06-02T21:42:11.856Z,18.80
2018-06-02T21:44:40.082Z,18.80
2018-06-02T21:47:08.240Z,18.80
2018-06-02T21:49:36.557Z,18.80
2018-06-02T21:52:04.850Z,18.70
2018-06-02T21:54:33.091Z,18.80
2018-06-02T21:57:01.497Z,18.70
2018-06-02T21:59:29.717Z,18.60
2018-06-02T22:01:58.052Z,18.60
2018-06-02T22:04:26.233Z,18.70
2018-06-02T22:06:54.405Z,18.70
2018-06-02T22:09:24.008Z,18.70
2018-06-02T22:11:52.575Z,18.70
2018-06-02T22:14:20.848Z,18.80
2018-06-02T22:16:49.590Z,18.80
2018-06-02T22:19:17.836Z,18.70
2018-06-02T22:21:46.203Z,18.80
2018-06-02T22:24:14.386Z,18.80
2018-06-02T22:26:42.555Z,18.80
2018-06-02T22:29:11.188Z,18.80
2018-06-02T22:31:39.892Z,18.80
2018-06-02T22:34:08.100Z,18.80
2018-06-02T22:39:05.534Z,18.80
2018-06-02T22:41:34.880Z,18.90
2018-06-02T22:44:03.042Z,18.80
2018-06-02T22:46:31.714Z,18.80
2018-06-02T22:49:00.822Z,18.80
2018-06-02T22:51:40.334Z,18.70
2018-06-02T22:54:08.634Z,18.70
2018-06-02T22:56:39.177Z,18.70
2018-06-02T22:59:09.938Z,18.80
2018-06-02T23:01:38.237Z,18.70
2018-06-02T23:04:09.969Z,18.70
2018-06-02T23:06:38.624Z,18.70
2018-06-02T23:09:07.764Z,18.70
2018-06-02T23:11:35.975Z,18.70
2018-06-02T23:14:04.211Z,18.60
2018-06-02T23:16:32.492Z,18.60
2018-06-02T23:19:00.707Z,18.50
2018-06-02T23:21:28.886Z,18.40
2018-06-02T23:23:57.111Z,18.50
2018-06-02T23:26:25.343Z,18.40
2018-06-02T23:28:53.541Z,18.40
2018-06-02T23:31:21.732Z,18.40
2018-06-02T23:33:50.227Z,18.40
2018-06-02T23:36:22.390Z,18.30
2018-06-02T23:38:50.615Z,18.30
2018-06-02T23:41:18.817Z,18.30
2018-06-02T23:43:46.952Z,18.30
2018-06-02T23:46:15.301Z,18.30
2018-06-02T23:48:43.484Z,18.20
2018-06-02T23:51:11.716Z,18.20
2018-06-02T23:53:39.973Z,18.20
2018-06-02T23:56:08.146Z,18.20
2018-06-02T23:58:36.395Z,18.10
